createdAt,value
2022-10-09T00:01:09.239Z,12.08
2022-10-09T00:03:39.542Z,12.07
2022-10-09T00:06:09.530Z,12.02
2022-10-09T00:08:40.037Z,12.00
2022-10-09T00:11:09.225Z,11.95
2022-10-09T00:13:37.689Z,11.95
2022-10-09T00:16:08.562Z,11.92
2022-10-09T00:18:36.573Z,11.87
2022-10-09T00:21:05.723Z,11.80
2022-10-09T00:23:33.990Z,11.74
2022-10-09T00:26:03.531Z,11.72
2022-10-09T00:28:36.521Z,11.72
2022-10-09T00:31:07.227Z,11.70
2022-10-09T00:33:35.568Z,11.70
2022-10-09T00:36:04.625Z,11.68
2022-10-09T00:38:32.622Z,11.70
2022-10-09T00:41:00.436Z,11.69
2022-10-09T00:43:47.651Z,11.73
2022-10-09T00:46:36.179Z,11.73
2022-10-09T00:49:11.742Z,11.74
2022-10-09T00:51:40.292Z,11.75
2022-10-09T00:54:13.195Z,11.73
2022-10-09T00:56:41.364Z,11.74
2022-10-09T00:59:11.719Z,11.73
2022-10-09T01:01:41.801Z,11.73
2022-10-09T01:04:09.965Z,11.70
2022-10-09T01:06:53.899Z,11.69
2022-10-09T01:09:26.593Z,11.69
2022-10-09T01:12:01.997Z,11.66
2022-10-09T01:14:35.696Z,11.67
2022-10-09T01:17:13.376Z,11.64
2022-10-09T01:19:57.784Z,11.61
2022-10-09T01:22:44.168Z,11.59
2022-10-09T01:25:20.844Z,11.57
2022-10-09T01:27:50.445Z,11.53
2022-10-09T01:30:18.632Z,11.59
2022-10-09T01:32:51.908Z,11.63
2022-10-09T01:35:21.107Z,11.61
2022-10-09T01:37:52.071Z,11.60
2022-10-09T01:40:21.064Z,11.59
2022-10-09T01:42:50.651Z,11.58
2022-10-09T01:45:18.898Z,11.57
2022-10-09T01:47:46.745Z,11.54
2022-10-09T01:50:23.328Z,11.55
2022-10-09T01:52:54.121Z,11.55
2022-10-09T01:55:37.554Z,11.55
2022-10-09T01:58:16.220Z,11.55
2022-10-09T02:00:48.035Z,11.58
2022-10-09T02:03:18.359Z,11.55
2022-10-09T02:05:50.542Z,11.57
2022-10-09T02:08:21.005Z,11.63
2022-10-09T02:10:53.976Z,11.67
2022-10-09T02:13:24.397Z,11.76
2022-10-09T02:15:57.569Z,11.83
2022-10-09T02:18:32.606Z,11.91
2022-10-09T02:21:08.600Z,11.94
2022-10-09T02:23:39.903Z,11.98
2022-10-09T02:26:11.351Z,12.01
2022-10-09T02:28:45.706Z,12.03
2022-10-09T02:31:21.338Z,12.11
2022-10-09T02:33:56.575Z,12.10
2022-10-09T02:36:24.697Z,12.10
2022-10-09T02:38:52.845Z,12.13
2022-10-09T02:41:20.716Z,12.18
2022-10-09T02:43:50.079Z,12.17
2022-10-09T02:46:18.524Z,12.18
2022-10-09T02:48:46.582Z,12.20
2022-10-09T02:51:14.690Z,12.15
2022-10-09T02:53:42.620Z,12.12
2022-10-09T02:56:11.021Z,12.12
2022-10-09T02:58:40.055Z,12.01
2022-10-09T03:01:09.298Z,11.97
2022-10-09T03:03:37.169Z,11.97
2022-10-09T03:06:09.571Z,11.92
2022-10-09T03:08:37.607Z,11.91
2022-10-09T03:11:05.781Z,11.84
2022-10-09T03:13:34.089Z,11.83
2022-10-09T03:16:05.500Z,11.86
2022-10-09T03:18:35.332Z,11.81
2022-10-09T03:21:06.355Z,11.85
2022-10-09T03:23:34.409Z,11.88
2022-10-09T03:26:04.487Z,11.86
2022-10-09T03:28:32.456Z,11.84
2022-10-09T03:31:00.782Z,11.84
2022-10-09T03:33:28.952Z,11.81
2022-10-09T03:35:58.131Z,11.83
2022-10-09T03:38:26.189Z,11.81
2022-10-09T03:40:54.328Z,11.70
2022-10-09T03:43:22.382Z,11.65
2022-10-09T03:45:50.301Z,11.63
2022-10-09T03:48:18.560Z,11.59
2022-10-09T03:50:46.398Z,11.55
2022-10-09T03:53:16.450Z,11.49
2022-10-09T03:55:44.513Z,11.49
2022-10-09T03:58:12.384Z,11.45
2022-10-09T04:00:40.311Z,11.40
2022-10-09T04:03:08.285Z,11.40
2022-10-09T04:05:36.563Z,11.36
2022-10-09T04:08:04.379Z,11.36
2022-10-09T04:10:33.678Z,11.34
2022-10-09T04:13:01.530Z,11.32
2022-10-09T04:15:29.340Z,11.24
2022-10-09T04:17:57.192Z,11.18
2022-10-09T04:20:24.989Z,11.12
2022-10-09T04:22:52.780Z,11.13
2022-10-09T04:25:20.730Z,11.09
2022-10-09T04:27:49.966Z,11.06
2022-10-09T04:30:17.916Z,11.00
2022-10-09T04:32:48.514Z,10.99
2022-10-09T04:35:17.529Z,11.02
2022-10-09T04:37:45.412Z,11.01
2022-10-09T04:40:13.351Z,10.97
2022-10-09T04:42:41.376Z,10.92
2022-10-09T04:45:11.833Z,10.90
2022-10-09T04:47:40.783Z,10.85
2022-10-09T04:50:09.650Z,10.82
2022-10-09T04:52:37.459Z,10.77
2022-10-09T04:55:05.827Z,10.70
2022-10-09T04:57:33.652Z,10.70
2022-10-09T05:00:01.476Z,10.72
2022-10-09T05:02:32.143Z,10.63
2022-10-09T05:05:00.024Z,10.63
2022-10-09T05:07:27.831Z,10.60
2022-10-09T05:09:55.792Z,10.51
2022-10-09T05:12:23.597Z,10.48
2022-10-09T05:14:51.447Z,10.46
2022-10-09T05:17:23.022Z,10.37
2022-10-09T05:19:52.753Z,10.32
2022-10-09T05:22:20.748Z,10.24
2022-10-09T05:24:48.570Z,10.21
2022-10-09T05:27:16.430Z,10.12
2022-10-09T05:29:44.505Z,10.15
2022-10-09T05:32:12.386Z,10.10
2022-10-09T05:34:40.257Z,10.12
2022-10-09T05:37:09.758Z,10.00
2022-10-09T05:39:38.448Z,9.95
2022-10-09T05:42:07.200Z,9.93
2022-10-09T05:44:35.180Z,9.90
2022-10-09T05:47:03.586Z,9.86
2022-10-09T05:49:31.492Z,9.86
2022-10-09T05:52:00.154Z,9.86
2022-10-09T05:54:29.727Z,9.89
2022-10-09T05:56:57.640Z,9.83
2022-10-09T05:59:26.945Z,9.86
2022-10-09T06:01:54.948Z,9.81
2022-10-09T06:04:24.269Z,9.80
2022-10-09T06:06:52.872Z,9.78
2022-10-09T06:09:24.121Z,9.84
2022-10-09T06:11:55.135Z,9.81
2022-10-09T06:14:24.514Z,9.82
2022-10-09T06:16:52.964Z,9.93
2022-10-09T06:19:21.728Z,9.92
2022-10-09T06:21:50.605Z,9.96
2022-10-09T06:24:24.530Z,9.98
2022-10-09T06:26:58.099Z,9.95
2022-10-09T06:29:26.137Z,9.97
2022-10-09T06:31:54.145Z,9.97
2022-10-09T06:34:22.320Z,10.02
2022-10-09T06:36:50.400Z,10.03
2022-10-09T06:39:18.463Z,10.09
2022-10-09T06:41:46.563Z,10.14
2022-10-09T06:44:17.377Z,10.19
2022-10-09T06:46:49.429Z,10.21
2022-10-09T06:49:17.294Z,10.24
2022-10-09T06:51:45.142Z,10.25
2022-10-09T06:54:14.529Z,10.32
2022-10-09T06:56:42.383Z,10.39
2022-10-09T06:59:12.551Z,10.43
2022-10-09T07:01:42.028Z,10.47
2022-10-09T07:04:12.793Z,10.56
2022-10-09T07:06:43.169Z,10.64
2022-10-09T07:09:13.319Z,10.72
2022-10-09T07:11:43.675Z,10.77
2022-10-09T07:14:13.098Z,10.86
2022-10-09T07:16:44.272Z,10.86
2022-10-09T07:19:12.775Z,10.92
2022-10-09T07:21:42.785Z,10.98
2022-10-09T07:24:12.071Z,10.98
2022-10-09T07:26:42.027Z,11.06
2022-10-09T07:29:12.394Z,11.18
2022-10-09T07:31:40.461Z,11.28
2022-10-09T07:34:09.674Z,11.39
2022-10-09T07:36:37.749Z,11.45
2022-10-09T07:39:07.049Z,11.49
2022-10-09T07:41:35.734Z,11.63
2022-10-09T07:44:03.727Z,11.79
2022-10-09T07:46:33.994Z,11.84
2022-10-09T07:49:02.249Z,11.82
2022-10-09T07:51:32.503Z,11.86
2022-10-09T07:54:02.094Z,11.83
2022-10-09T07:56:32.479Z,11.94
2022-10-09T07:59:01.715Z,12.01
2022-10-09T08:01:30.653Z,12.11
2022-10-09T08:03:59.494Z,12.16
2022-10-09T08:06:27.564Z,12.21
2022-10-09T08:08:59.085Z,12.26
2022-10-09T08:11:28.733Z,12.33
2022-10-09T08:13:57.271Z,12.41
2022-10-09T08:16:27.032Z,12.47
2022-10-09T08:18:59.348Z,12.56
2022-10-09T08:21:28.453Z,12.57
2022-10-09T08:23:59.560Z,12.73
2022-10-09T08:26:29.875Z,12.71
2022-10-09T08:28:59.521Z,12.87
2022-10-09T08:31:28.186Z,12.94
2022-10-09T08:33:57.769Z,13.07
2022-10-09T08:36:26.700Z,13.09
2022-10-09T08:38:55.303Z,13.15
2022-10-09T08:41:38.492Z,13.24
2022-10-09T08:44:12.134Z,13.33
2022-10-09T08:46:51.222Z,13.48
2022-10-09T08:49:26.274Z,13.52
2022-10-09T08:51:57.753Z,13.56
2022-10-09T08:54:34.504Z,13.68
2022-10-09T08:57:11.048Z,13.64
2022-10-09T08:59:38.980Z,13.79
2022-10-09T09:02:26.588Z,13.89
2022-10-09T09:05:03.972Z,13.99
2022-10-09T09:07:39.071Z,14.05
2022-10-09T09:10:14.936Z,14.11
2022-10-09T09:12:51.085Z,14.23
2022-10-09T09:15:31.615Z,14.36
2022-10-09T09:18:08.427Z,14.37
2022-10-09T09:20:48.454Z,14.45
2022-10-09T09:23:17.891Z,14.49
2022-10-09T09:25:46.223Z,14.55
2022-10-09T09:28:21.493Z,14.59
2022-10-09T09:30:55.841Z,14.66
2022-10-09T09:33:35.775Z,14.72
2022-10-09T09:36:10.209Z,14.71
2022-10-09T09:38:53.713Z,14.75
2022-10-09T09:41:28.361Z,14.75
2022-10-09T09:43:57.698Z,14.82
2022-10-09T09:46:31.252Z,14.89
2022-10-09T09:48:59.558Z,15.00
2022-10-09T09:51:30.194Z,14.94
2022-10-09T09:54:00.960Z,15.01
2022-10-09T09:56:59.730Z,14.88
2022-10-09T09:59:33.438Z,14.99
2022-10-09T10:02:03.120Z,15.10
2022-10-09T10:04:31.079Z,15.15
2022-10-09T10:06:59.213Z,15.21
2022-10-09T10:09:27.153Z,15.35
2022-10-09T10:11:58.323Z,15.41
2022-10-09T10:14:28.688Z,15.56
2022-10-09T10:16:58.331Z,15.69
2022-10-09T10:19:28.625Z,15.55
2022-10-09T10:21:58.849Z,15.58
2022-10-09T10:24:31.812Z,15.45
2022-10-09T10:27:04.042Z,15.50
2022-10-09T10:29:38.382Z,15.66
2022-10-09T10:32:15.535Z,15.66
2022-10-09T10:34:50.570Z,15.78
2022-10-09T10:37:40.609Z,15.88
2022-10-09T10:40:16.101Z,16.06
2022-10-09T10:42:57.444Z,16.00
2022-10-09T10:45:35.650Z,15.98
2022-10-09T10:48:06.288Z,16.02
2022-10-09T10:50:39.771Z,16.33
2022-10-09T10:53:18.304Z,16.45
2022-10-09T10:55:55.328Z,16.43
2022-10-09T10:58:30.611Z,16.31
2022-10-09T11:01:20.459Z,16.22
2022-10-09T11:04:15.869Z,16.13
2022-10-09T11:06:54.485Z,16.23
2022-10-09T11:09:31.833Z,16.40
2022-10-09T11:12:19.330Z,16.48
2022-10-09T11:15:03.281Z,16.61
2022-10-09T11:17:41.353Z,16.55
2022-10-09T11:20:37.036Z,16.66
2022-10-09T11:23:14.258Z,16.74
2022-10-09T11:25:46.735Z,16.89
2022-10-09T11:28:19.560Z,17.03
2022-10-09T11:30:54.055Z,17.15
2022-10-09T11:33:33.480Z,17.22
2022-10-09T11:36:06.165Z,17.27
2022-10-09T11:38:38.631Z,17.23
2022-10-09T11:41:08.095Z,17.20
2022-10-09T11:43:53.550Z,17.19
2022-10-09T11:46:33.563Z,17.13
2022-10-09T11:49:10.968Z,17.17
2022-10-09T11:51:46.491Z,17.15
2022-10-09T11:54:17.612Z,17.19
2022-10-09T11:56:55.357Z,17.26
2022-10-09T11:59:26.252Z,17.26
2022-10-09T12:01:54.403Z,17.20
2022-10-09T12:04:54.027Z,17.21
2022-10-09T12:07:32.486Z,17.23
2022-10-09T12:10:06.482Z,17.24
2022-10-09T12:12:37.759Z,17.14
2022-10-09T12:15:24.786Z,17.02
2022-10-09T12:17:52.641Z,17.01
2022-10-09T12:20:25.941Z,16.99
2022-10-09T12:23:21.694Z,16.97
2022-10-09T12:25:47.172Z,17.08
2022-10-09T12:28:21.788Z,17.04
2022-10-09T12:30:51.884Z,17.00
2022-10-09T12:33:25.258Z,17.09
2022-10-09T12:36:04.276Z,17.19
2022-10-09T12:38:32.965Z,17.28
2022-10-09T12:41:03.930Z,17.35
2022-10-09T12:43:33.681Z,17.35
2022-10-09T12:46:02.232Z,17.41
2022-10-09T12:48:36.585Z,17.41
2022-10-09T12:51:16.127Z,17.40
2022-10-09T12:53:49.892Z,17.46
2022-10-09T12:56:23.892Z,17.47
2022-10-09T12:58:53.412Z,17.35
2022-10-09T13:01:22.318Z,17.21
2022-10-09T13:03:58.911Z,17.23
2022-10-09T13:06:33.835Z,17.20
2022-10-09T13:09:05.294Z,17.32
2022-10-09T13:11:38.037Z,17.38
2022-10-09T13:14:06.739Z,17.46
2022-10-09T13:16:41.983Z,17.50
2022-10-09T13:19:24.841Z,17.46
2022-10-09T13:22:21.920Z,17.38
2022-10-09T13:24:53.472Z,17.29
2022-10-09T13:27:21.947Z,17.30
2022-10-09T13:29:49.949Z,17.25
2022-10-09T13:32:19.618Z,17.20
2022-10-09T13:34:47.921Z,17.24
2022-10-09T13:37:17.836Z,17.14
2022-10-09T13:39:47.319Z,17.20
2022-10-09T13:42:17.483Z,17.43
2022-10-09T13:44:45.533Z,17.60
2022-10-09T13:47:13.540Z,17.75
2022-10-09T13:49:41.428Z,17.69
2022-10-09T13:52:09.538Z,17.59
2022-10-09T13:54:37.723Z,17.51
2022-10-09T13:57:07.095Z,17.50
2022-10-09T13:59:35.266Z,17.43
2022-10-09T14:02:03.495Z,17.43
2022-10-09T14:04:31.612Z,17.34
2022-10-09T14:06:59.430Z,17.31
2022-10-09T14:09:27.475Z,17.30
2022-10-09T14:11:55.340Z,17.24
2022-10-09T14:14:24.618Z,17.09
2022-10-09T14:16:52.564Z,17.01
2022-10-09T14:19:20.504Z,17.05
2022-10-09T14:21:48.451Z,17.11
2022-10-09T14:24:16.412Z,17.29
2022-10-09T14:26:47.334Z,17.64
2022-10-09T14:29:19.137Z,17.82
2022-10-09T14:31:50.902Z,17.91
2022-10-09T14:34:18.962Z,17.64
2022-10-09T14:36:46.883Z,17.53
2022-10-09T14:39:15.117Z,17.27
2022-10-09T14:41:43.087Z,17.15
2022-10-09T14:44:11.489Z,17.08
2022-10-09T14:46:39.431Z,16.93
2022-10-09T14:49:09.736Z,16.86
2022-10-09T14:51:39.632Z,16.84
2022-10-09T14:54:08.647Z,16.77
2022-10-09T14:56:36.975Z,16.74
2022-10-09T14:59:05.997Z,16.64
2022-10-09T15:01:34.804Z,16.61
2022-10-09T15:04:03.709Z,16.56
2022-10-09T15:06:33.958Z,16.61
2022-10-09T15:09:05.559Z,16.53
2022-10-09T15:11:35.474Z,16.44
2022-10-09T15:14:03.670Z,16.42
2022-10-09T15:16:31.745Z,16.42
2022-10-09T15:18:59.818Z,16.38
2022-10-09T15:21:30.062Z,16.23
2022-10-09T15:24:01.297Z,16.22
2022-10-09T15:26:32.818Z,16.25
2022-10-09T15:29:02.846Z,16.23
2022-10-09T15:31:32.781Z,16.19
2022-10-09T15:34:02.452Z,16.15
2022-10-09T15:36:31.392Z,16.12
2022-10-09T15:39:05.665Z,16.14
2022-10-09T15:41:35.345Z,16.06
2022-10-09T15:44:05.688Z,16.05
2022-10-09T15:46:33.605Z,16.08
2022-10-09T15:49:01.551Z,16.05
2022-10-09T15:51:30.194Z,16.00
2022-10-09T15:54:02.064Z,16.00
2022-10-09T15:56:30.743Z,15.96
2022-10-09T15:58:59.762Z,15.93
2022-10-09T16:01:27.662Z,15.90
2022-10-09T16:03:55.796Z,15.83
2022-10-09T16:06:25.496Z,15.82
2022-10-09T16:08:56.748Z,15.79
2022-10-09T16:11:26.960Z,15.76
2022-10-09T16:13:55.674Z,15.71
2022-10-09T16:16:27.636Z,15.68
2022-10-09T16:18:57.005Z,15.64
2022-10-09T16:21:27.706Z,15.53
2022-10-09T16:23:58.704Z,15.49
2022-10-09T16:26:30.627Z,15.47
2022-10-09T16:29:00.170Z,15.41
2022-10-09T16:31:30.290Z,15.38
2022-10-09T16:33:58.737Z,15.36
2022-10-09T16:36:26.998Z,15.33
2022-10-09T16:38:55.661Z,15.22
2022-10-09T16:41:24.293Z,15.17
2022-10-09T16:43:55.635Z,15.12
2022-10-09T16:46:25.667Z,15.08
2022-10-09T16:48:54.581Z,14.98
2022-10-09T16:51:24.874Z,14.96
2022-10-09T16:53:53.968Z,14.87
2022-10-09T16:56:23.790Z,14.78
2022-10-09T16:58:56.983Z,14.79
2022-10-09T17:01:25.659Z,14.70
2022-10-09T17:03:54.966Z,14.64
2022-10-09T17:06:24.232Z,14.62
2022-10-09T17:08:52.743Z,14.60
2022-10-09T17:11:21.479Z,14.54
2022-10-09T17:13:49.571Z,14.50
2022-10-09T17:16:21.059Z,14.49
2022-10-09T17:18:49.688Z,14.43
2022-10-09T17:21:19.164Z,14.40
2022-10-09T17:23:57.905Z,14.39
2022-10-09T17:26:27.479Z,14.38
2022-10-09T17:28:55.534Z,14.33
2022-10-09T17:31:26.111Z,14.30
2022-10-09T17:33:56.495Z,14.26
2022-10-09T17:36:26.207Z,14.25
2022-10-09T17:38:54.450Z,14.24
2022-10-09T17:41:24.533Z,14.24
2022-10-09T17:43:53.069Z,14.21
2022-10-09T17:46:21.605Z,14.16
2022-10-09T17:48:53.409Z,14.13
2022-10-09T17:51:23.931Z,14.08
2022-10-09T17:53:52.242Z,14.03
2022-10-09T17:56:20.279Z,13.90
2022-10-09T17:58:49.520Z,13.87
2022-10-09T18:01:18.457Z,13.78
2022-10-09T18:03:46.599Z,13.73
2022-10-09T18:06:18.154Z,13.75
2022-10-09T18:08:46.839Z,13.73
2022-10-09T18:11:17.407Z,13.61
2022-10-09T18:13:46.413Z,13.58
2022-10-09T18:16:18.029Z,13.57
2022-10-09T18:18:47.201Z,13.57
2022-10-09T18:21:17.902Z,13.56
2022-10-09T18:23:46.663Z,13.43
2022-10-09T18:26:16.212Z,13.44
2022-10-09T18:28:48.171Z,13.46
2022-10-09T18:31:21.358Z,13.44
2022-10-09T18:33:49.494Z,13.42
2022-10-09T18:36:22.798Z,13.39
2022-10-09T18:38:52.939Z,13.37
2022-10-09T18:41:22.428Z,13.28
2022-10-09T18:43:51.478Z,13.28
2022-10-09T18:46:22.066Z,13.23
2022-10-09T18:48:51.493Z,13.25
2022-10-09T18:51:24.396Z,13.15
2022-10-09T18:53:55.632Z,13.09
2022-10-09T18:56:23.717Z,13.09
2022-10-09T18:58:53.890Z,13.04
2022-10-09T19:01:22.133Z,13.00
2022-10-09T19:03:50.481Z,13.01
2022-10-09T19:06:20.312Z,13.03
2022-10-09T19:08:48.329Z,13.02
2022-10-09T19:11:16.773Z,12.99
2022-10-09T19:13:45.127Z,13.00
2022-10-09T19:16:13.015Z,12.97
2022-10-09T19:18:41.016Z,12.92
2022-10-09T19:21:13.696Z,12.88
2022-10-09T19:23:43.942Z,12.81
2022-10-09T19:26:13.677Z,12.76
2022-10-09T19:28:41.695Z,12.77
2022-10-09T19:31:11.666Z,12.79
2022-10-09T19:33:40.291Z,12.78
2022-10-09T19:36:10.835Z,12.75
2022-10-09T19:38:38.698Z,12.65
2022-10-09T19:41:11.006Z,12.66
2022-10-09T19:43:39.436Z,12.63
2022-10-09T19:46:09.710Z,12.59
2022-10-09T19:48:38.349Z,12.53
2022-10-09T19:51:07.492Z,12.53
2022-10-09T19:53:36.035Z,12.48
2022-10-09T19:56:09.554Z,12.46
2022-10-09T19:58:41.789Z,12.39
2022-10-09T20:01:11.792Z,12.44
2022-10-09T20:03:40.207Z,12.43
2022-10-09T20:06:09.665Z,12.38
2022-10-09T20:08:37.628Z,12.39
2022-10-09T20:11:06.467Z,12.39
2022-10-09T20:13:35.860Z,12.37
2022-10-09T20:16:07.799Z,12.33
2022-10-09T20:18:35.855Z,12.38
2022-10-09T20:21:03.762Z,12.31
2022-10-09T20:23:31.858Z,12.34
2022-10-09T20:26:00.958Z,12.34
2022-10-09T20:28:28.970Z,12.32
2022-10-09T20:30:57.715Z,12.29
2022-10-09T20:33:27.294Z,12.26
2022-10-09T20:35:55.168Z,12.30
2022-10-09T20:38:25.728Z,12.28
2022-10-09T20:40:54.322Z,12.30
2022-10-09T20:43:22.139Z,12.31
2022-10-09T20:45:50.088Z,12.27
2022-10-09T20:48:18.020Z,12.30
2022-10-09T20:50:47.282Z,12.35
2022-10-09T20:53:16.832Z,12.39
2022-10-09T20:55:44.663Z,12.42
2022-10-09T20:58:12.526Z,12.40
2022-10-09T21:00:43.299Z,12.39
2022-10-09T21:03:12.661Z,12.36
2022-10-09T21:05:44.933Z,12.39
2022-10-09T21:08:14.315Z,12.40
2022-10-09T21:10:47.373Z,12.38
2022-10-09T21:13:15.395Z,12.36
2022-10-09T21:15:44.235Z,12.40
2022-10-09T21:18:12.656Z,12.42
2022-10-09T21:20:41.399Z,12.42
2022-10-09T21:23:09.848Z,12.39
2022-10-09T21:25:39.958Z,12.43
2022-10-09T21:28:07.875Z,12.43
2022-10-09T21:30:41.510Z,12.30
2022-10-09T21:33:09.653Z,12.32
2022-10-09T21:35:40.558Z,12.38
2022-10-09T21:38:11.529Z,12.33
2022-10-09T21:40:40.811Z,12.32
2022-10-09T21:43:08.897Z,12.29
2022-10-09T21:45:36.949Z,12.24
2022-10-09T21:48:05.748Z,12.29
2022-10-09T21:50:34.345Z,12.34
2022-10-09T21:53:02.254Z,12.28
2022-10-09T21:55:30.118Z,12.32
2022-10-09T21:57:59.313Z,12.33
2022-10-09T22:00:27.310Z,12.26
2022-10-09T22:02:55.150Z,12.32
2022-10-09T22:05:22.969Z,12.26
2022-10-09T22:07:50.935Z,12.26
2022-10-09T22:10:18.905Z,12.23
2022-10-09T22:12:46.741Z,12.22
2022-10-09T22:15:16.073Z,12.20
2022-10-09T22:17:44.008Z,12.21
2022-10-09T22:20:13.117Z,12.17
2022-10-09T22:22:41.349Z,12.16
2022-10-09T22:25:09.901Z,12.08
2022-10-09T22:27:37.781Z,12.10
2022-10-09T22:30:06.777Z,12.10
2022-10-09T22:32:36.011Z,11.97
2022-10-09T22:35:03.970Z,11.96
2022-10-09T22:37:32.224Z,11.93
2022-10-09T22:40:00.047Z,11.91
2022-10-09T22:42:27.939Z,11.82
2022-10-09T22:44:55.925Z,11.78
2022-10-09T22:47:23.800Z,11.77
2022-10-09T22:49:53.033Z,11.83
2022-10-09T22:52:20.980Z,11.72
2022-10-09T22:54:48.820Z,11.74
2022-10-09T22:57:16.813Z,11.73
2022-10-09T22:59:44.939Z,11.81
2022-10-09T23:02:12.818Z,11.79
2022-10-09T23:04:40.606Z,11.75
2022-10-09T23:07:11.117Z,11.78
2022-10-09T23:09:45.894Z,11.81
2022-10-09T23:12:14.062Z,11.77
2022-10-09T23:14:42.034Z,11.80
2022-10-09T23:17:09.863Z,11.77
2022-10-09T23:19:38.069Z,11.77
2022-10-09T23:22:05.945Z,11.78
2022-10-09T23:24:35.140Z,11.78
2022-10-09T23:27:03.206Z,11.66
2022-10-09T23:29:31.003Z,11.67
2022-10-09T23:31:58.859Z,11.67
2022-10-09T23:34:26.907Z,11.60
2022-10-09T23:36:54.750Z,11.55
2022-10-09T23:39:22.588Z,11.54
2022-10-09T23:41:51.841Z,11.53
2022-10-09T23:44:22.132Z,11.50
2022-10-09T23:46:50.330Z,11.46
2022-10-09T23:49:18.335Z,11.43
2022-10-09T23:51:46.193Z,11.43
2022-10-09T23:54:14.299Z,11.47
2022-10-09T23:56:42.827Z,11.46
2022-10-09T23:59:13.010Z,11.43
